Time;durP1;ratioP1;P1;durP2;ratioP2;P2;SDS_P1;SDS_P2;PMS_P1;PMS_P2;Temp;Humidity;BMP_temperature;BMP_pressure;BME280_temperature;BME280_humidity;BME280_pressure;Samples;Min_cycle;Max_cycle;Signal;HPM_P1;HPM_P2
2022/12/23 00:01:08;;;;;;;1.60;1.10;;;10.20;98.20;;;;;;5042604;28;20508;-75
2022/12/23 00:03:35;;;;;;;1.60;1.10;;;10.20;98.20;;;;;;5045138;28;20458;-76
2022/12/23 00:06:08;;;;;;;1.60;1.10;;;10.20;98.20;;;;;;5043623;28;20472;-76
2022/12/23 00:08:35;;;;;;;1.60;1.10;;;10.20;98.20;;;;;;5038474;28;20459;-75
2022/12/23 00:11:05;;;;;;;1.60;1.20;;;10.20;98.20;;;;;;5045694;28;20489;-75
2022/12/23 00:16:17;;;;;;;1.60;1.10;;;10.20;98.20;;;;;;5038650;28;21009;-76
2022/12/23 00:18:44;;;;;;;1.60;1.10;;;10.20;98.20;;;;;;5049283;28;20454;-76
2022/12/23 00:21:13;;;;;;;1.60;1.10;;;10.20;98.20;;;;;;5042561;28;20485;-76
2022/12/23 00:23:44;;;;;;;1.60;1.20;;;10.20;98.20;;;;;;5043931;28;20469;-75
2022/12/23 00:26:14;;;;;;;1.60;1.20;;;10.20;98.20;;;;;;5040299;28;20477;-76
2022/12/23 00:28:42;;;;;;;1.63;1.13;;;10.20;98.20;;;;;;5046367;28;20462;-76
2022/12/23 00:31:11;;;;;;;1.60;1.20;;;10.20;98.20;;;;;;5037687;28;20524;-75
2022/12/23 00:33:39;;;;;;;1.60;1.20;;;10.20;98.20;;;;;;5044494;28;20473;-76
2022/12/23 00:36:12;;;;;;;1.60;1.20;;;10.20;98.20;;;;;;5041253;28;20692;-76
2022/12/23 00:44:09;;;;;;;1.60;1.10;;;10.20;98.20;;;;;;5051666;28;20446;-76
2022/12/23 00:46:36;;;;;;;1.60;1.20;;;10.20;98.20;;;;;;5040432;28;20479;-76
2022/12/23 00:51:47;;;;;;;1.60;1.10;;;10.20;98.20;;;;;;5041464;28;20490;-76
2022/12/23 00:54:14;;;;;;;1.60;1.20;;;10.20;98.20;;;;;;5046318;28;20800;-75
2022/12/23 00:56:41;;;;;;;1.60;1.20;;;10.20;98.20;;;;;;5036834;28;20494;-77
2022/12/23 00:59:09;;;;;;;1.60;1.10;;;10.20;98.20;;;;;;5048756;28;20570;-76
2022/12/23 01:07:06;;;;;;;1.70;1.20;;;10.30;98.20;;;;;;5038533;28;21016;-77
2022/12/23 01:09:33;;;;;;;1.60;1.20;;;10.30;98.20;;;;;;5041235;28;20478;-77
2022/12/23 01:12:00;;;;;;;1.60;1.20;;;10.30;98.20;;;;;;5039288;28;20528;-77
2022/12/23 01:14:29;;;;;;;1.63;1.30;;;10.30;98.20;;;;;;5045730;28;20454;-76
2022/12/23 01:16:56;;;;;;;1.60;1.10;;;10.30;98.20;;;;;;5044553;28;20858;-77
2022/12/23 01:19:24;;;;;;;1.60;1.10;;;10.30;98.20;;;;;;5049026;28;20457;-77
2022/12/23 01:21:51;;;;;;;1.63;1.20;;;10.30;98.20;;;;;;5038211;28;20488;-77
2022/12/23 01:24:17;;;;;;;1.60;1.10;;;10.30;98.20;;;;;;5043804;28;20476;-76
2022/12/23 01:26:44;;;;;;;1.60;1.10;;;10.30;98.20;;;;;;5037761;28;20486;-77
2022/12/23 01:29:11;;;;;;;1.60;1.10;;;10.20;98.20;;;;;;5046697;28;20458;-76
2022/12/23 01:31:39;;;;;;;1.60;1.20;;;10.30;98.20;;;;;;5036461;28;20883;-78
2022/12/23 01:34:06;;;;;;;1.60;1.10;;;10.20;98.20;;;;;;5065084;28;20978;-77
2022/12/23 01:36:33;;;;;;;1.63;1.27;;;10.20;98.20;;;;;;5051119;28;20834;-77
2022/12/23 01:39:00;;;;;;;1.60;1.10;;;10.20;98.20;;;;;;5050909;28;20460;-76
2022/12/23 01:44:53;;;;;;;1.60;1.10;;;10.20;98.20;;;;;;5055430;28;20433;-76
2022/12/23 01:47:27;;;;;;;1.60;1.10;;;10.20;98.20;;;;;;5034875;28;20530;-75
2022/12/23 01:49:59;;;;;;;1.63;1.20;;;10.20;98.20;;;;;;5060166;28;20541;-76
2022/12/23 01:52:27;;;;;;;1.60;1.10;;;10.20;98.20;;;;;;5049357;28;20482;-76
2022/12/23 01:54:55;;;;;;;1.60;1.10;;;10.20;98.20;;;;;;5057222;28;20786;-76
2022/12/23 01:57:22;;;;;;;1.60;1.10;;;10.20;98.20;;;;;;5055253;28;20477;-75
2022/12/23 02:05:22;;;;;;;1.60;1.20;;;10.30;98.20;;;;;;5061781;28;20588;-77
2022/12/23 02:10:47;;;;;;;1.60;1.20;;;10.30;98.20;;;;;;5058739;28;20476;-76
2022/12/23 02:13:21;;;;;;;1.60;1.10;;;10.30;98.20;;;;;;5038947;28;20492;-76
2022/12/23 02:19:07;;;;;;;1.60;1.10;;;10.30;98.20;;;;;;5061031;28;20968;-76
2022/12/23 02:21:59;;;;;;;1.60;1.10;;;10.30;98.20;;;;;;5053490;28;20483;-75
2022/12/23 02:25:03;;;;;;;1.60;1.10;;;10.30;98.20;;;;;;5057957;28;20461;-75
2022/12/23 02:27:32;;;;;;;1.70;1.30;;;10.30;98.20;;;;;;5054074;28;20469;-76
2022/12/23 02:30:23;;;;;;;1.60;1.20;;;10.30;98.20;;;;;;5047774;28;20486;-75
2022/12/23 02:33:22;;;;;;;1.63;1.20;;;10.30;98.20;;;;;;5054980;28;20477;-76
2022/12/23 02:35:58;;;;;;;1.60;1.17;;;10.30;98.20;;;;;;5058073;28;20462;-75
2022/12/23 02:38:32;;;;;;;1.70;1.30;;;10.30;98.20;;;;;;5066610;28;20538;-76
2022/12/23 02:41:07;;;;;;;1.60;1.20;;;10.30;98.20;;;;;;5045909;28;20474;-76
2022/12/23 02:43:57;;;;;;;1.60;1.20;;;10.30;98.20;;;;;;5060079;28;20616;-76
2022/12/23 02:46:30;;;;;;;1.60;1.17;;;10.30;98.20;;;;;;5043224;28;20872;-75
2022/12/23 02:49:03;;;;;;;1.60;1.10;;;10.30;98.20;;;;;;5052769;28;20458;-75
2022/12/23 02:51:34;;;;;;;1.60;1.10;;;10.30;98.20;;;;;;5040430;28;20485;-75
2022/12/23 02:54:06;;;;;;;1.60;1.20;;;10.30;98.20;;;;;;5041712;28;20469;-75
2022/12/23 02:56:37;;;;;;;1.63;1.17;;;10.30;98.20;;;;;;5039620;28;20473;-76
2022/12/23 02:59:08;;;;;;;1.60;1.20;;;10.30;98.20;;;;;;5043705;28;20470;-76
2022/12/23 03:01:50;;;;;;;1.60;1.20;;;10.30;98.20;;;;;;5038299;28;20503;-75
2022/12/23 03:04:19;;;;;;;1.60;1.10;;;10.30;98.20;;;;;;5035383;28;20470;-76
2022/12/23 03:06:49;;;;;;;1.60;1.10;;;10.30;98.20;;;;;;5033951;28;20474;-76
2022/12/23 03:09:24;;;;;;;1.60;1.10;;;10.30;98.20;;;;;;5041526;28;20524;-76
2022/12/23 03:11:59;;;;;;;1.60;1.10;;;10.30;98.20;;;;;;5035205;28;20477;-76
2022/12/23 03:14:50;;;;;;;1.60;1.20;;;10.30;98.20;;;;;;5044658;28;20461;-76
2022/12/23 03:17:30;;;;;;;1.60;1.20;;;10.30;98.20;;;;;;5038189;28;20458;-76
2022/12/23 03:20:03;;;;;;;1.60;1.10;;;10.30;98.20;;;;;;5046174;28;21005;-76
2022/12/23 03:22:38;;;;;;;1.60;1.13;;;10.30;98.20;;;;;;5049064;28;20485;-76
2022/12/23 03:25:15;;;;;;;1.63;1.20;;;10.30;98.20;;;;;;5048558;28;20465;-76
2022/12/23 03:27:49;;;;;;;1.70;1.30;;;10.30;98.20;;;;;;5046041;28;20488;-76
2022/12/23 03:30:18;;;;;;;1.63;1.20;;;10.40;98.20;;;;;;5052672;28;20490;-76
2022/12/23 03:32:51;;;;;;;1.60;1.10;;;10.40;98.20;;;;;;5047449;28;20521;-76
2022/12/23 03:35:24;;;;;;;1.60;1.20;;;10.40;98.20;;;;;;5048294;28;20454;-76
2022/12/23 03:37:53;;;;;;;1.60;1.20;;;10.30;98.20;;;;;;5048378;28;21009;-76
2022/12/23 03:40:23;;;;;;;1.60;1.10;;;10.40;98.20;;;;;;5046193;28;20501;-76
2022/12/23 03:42:56;;;;;;;1.70;1.30;;;10.30;98.20;;;;;;5047366;28;20488;-76
2022/12/23 03:45:27;;;;;;;1.60;1.10;;;10.40;98.20;;;;;;5048048;28;20485;-76
2022/12/23 03:47:59;;;;;;;1.60;1.13;;;10.40;98.20;;;;;;5045135;28;20547;-76
2022/12/23 03:50:29;;;;;;;1.70;1.20;;;10.40;98.20;;;;;;5044530;28;20489;-76
2022/12/23 03:53:00;;;;;;;1.60;1.17;;;10.40;98.20;;;;;;5047276;28;20557;-76
2022/12/23 03:55:32;;;;;;;1.63;1.20;;;10.40;98.20;;;;;;5047678;28;20462;-76
2022/12/23 03:58:09;;;;;;;1.60;1.20;;;10.30;98.20;;;;;;5046627;28;20471;-76
2022/12/23 04:00:41;;;;;;;1.67;1.30;;;10.30;98.20;;;;;;5046563;28;20484;-76
2022/12/23 04:03:18;;;;;;;1.60;1.20;;;10.30;98.20;;;;;;5047054;28;20486;-76
2022/12/23 04:05:52;;;;;;;1.60;1.10;;;10.30;98.20;;;;;;5047635;28;20465;-76
2022/12/23 04:08:24;;;;;;;1.67;1.20;;;10.30;98.20;;;;;;5045651;28;20461;-76
2022/12/23 04:10:51;;;;;;;1.60;1.30;;;10.30;98.20;;;;;;5036607;28;20486;-75
2022/12/23 04:13:21;;;;;;;1.60;1.10;;;10.20;98.20;;;;;;5046824;28;20459;-76
2022/12/23 04:15:48;;;;;;;1.60;1.10;;;10.20;98.20;;;;;;5038024;28;20458;-76
2022/12/23 04:18:16;;;;;;;1.60;1.20;;;10.20;98.20;;;;;;5044561;28;20561;-76
2022/12/23 04:20:42;;;;;;;3.43;3.23;;;10.20;98.20;;;;;;5045794;28;20612;-76
2022/12/23 04:23:11;;;;;;;1.60;1.20;;;10.20;98.20;;;;;;5040019;28;20482;-76
2022/12/23 04:25:38;;;;;;;1.60;1.10;;;10.20;98.20;;;;;;5047467;28;20465;-76
2022/12/23 04:28:05;;;;;;;1.60;1.20;;;10.20;98.20;;;;;;5040290;28;20486;-76
2022/12/23 04:30:31;;;;;;;1.60;1.10;;;10.20;98.20;;;;;;5046406;28;20482;-76
2022/12/23 04:32:58;;;;;;;1.60;1.20;;;10.20;98.20;;;;;;5041575;28;20474;-76
2022/12/23 04:35:25;;;;;;;1.60;1.10;;;10.20;98.20;;;;;;5049422;28;21049;-76
2022/12/23 04:37:52;;;;;;;1.60;1.10;;;10.20;98.20;;;;;;5034445;28;21026;-76
2022/12/23 04:40:20;;;;;;;1.60;1.10;;;10.20;98.20;;;;;;5040604;28;20561;-75
2022/12/23 04:42:47;;;;;;;1.60;1.20;;;10.20;98.20;;;;;;5034451;28;20480;-76
2022/12/23 04:45:13;;;;;;;1.80;1.60;;;10.20;98.20;;;;;;5045121;28;20463;-76
2022/12/23 04:47:40;;;;;;;1.60;1.20;;;10.20;98.20;;;;;;5035087;28;20493;-76
2022/12/23 04:50:10;;;;;;;1.60;1.13;;;10.20;98.20;;;;;;5045607;28;20489;-76
2022/12/23 04:52:37;;;;;;;1.70;1.23;;;10.20;98.20;;;;;;5040608;28;20844;-76
2022/12/23 04:55:04;;;;;;;1.60;1.20;;;10.20;98.20;;;;;;5050617;28;20473;-76
2022/12/23 04:57:32;;;;;;;1.70;1.20;;;10.20;98.20;;;;;;5053745;28;20500;-76
2022/12/23 04:59:59;;;;;;;1.60;1.10;;;10.10;98.20;;;;;;5058159;28;20776;-75
2022/12/23 05:02:26;;;;;;;1.63;1.20;;;10.10;98.20;;;;;;5050719;28;20477;-76
2022/12/23 05:04:52;;;;;;;1.60;1.10;;;10.10;98.20;;;;;;5064631;28;20469;-76
2022/12/23 05:07:19;;;;;;;1.60;1.20;;;10.10;98.20;;;;;;5048600;28;21008;-76
2022/12/23 05:09:46;;;;;;;1.60;1.20;;;10.10;98.20;;;;;;5051654;28;20478;-76
2022/12/23 05:12:12;;;;;;;1.60;1.10;;;10.10;98.20;;;;;;5054562;28;20498;-76
2022/12/23 05:14:40;;;;;;;1.60;1.10;;;10.10;98.20;;;;;;5065921;28;20457;-76
2022/12/23 05:17:07;;;;;;;1.60;1.20;;;10.10;98.20;;;;;;5053410;28;20477;-75
2022/12/23 05:19:34;;;;;;;1.60;1.10;;;10.10;98.20;;;;;;5058530;28;20520;-76
2022/12/23 05:22:01;;;;;;;1.60;1.10;;;10.10;98.20;;;;;;5049554;28;20478;-75
2022/12/23 05:24:27;;;;;;;1.63;1.20;;;10.10;98.20;;;;;;5061235;28;20511;-75
2022/12/23 05:26:54;;;;;;;1.60;1.20;;;10.10;98.20;;;;;;5054474;28;20500;-76
2022/12/23 05:29:21;;;;;;;1.60;1.20;;;10.10;98.20;;;;;;5061048;28;20462;-76
2022/12/23 05:31:49;;;;;;;1.60;1.20;;;10.10;98.20;;;;;;5052863;28;20492;-75
2022/12/23 05:34:16;;;;;;;1.60;1.20;;;10.10;98.20;;;;;;5066154;28;20941;-76
2022/12/23 05:36:42;;;;;;;1.60;1.10;;;10.10;98.20;;;;;;5049133;28;20490;-76
2022/12/23 05:39:09;;;;;;;1.60;1.20;;;10.10;98.20;;;;;;5049712;28;20818;-76
2022/12/23 05:41:36;;;;;;;1.60;1.20;;;10.10;98.20;;;;;;5051618;28;21019;-76
2022/12/23 05:44:03;;;;;;;1.60;1.20;;;10.10;98.20;;;;;;5052340;28;20580;-76
2022/12/23 05:46:29;;;;;;;1.60;1.17;;;10.10;98.20;;;;;;5037014;28;21065;-76
2022/12/23 05:48:57;;;;;;;1.60;1.20;;;10.10;98.20;;;;;;5043476;28;20461;-75
2022/12/23 05:51:24;;;;;;;1.60;1.20;;;10.10;98.20;;;;;;5035435;28;20478;-75
2022/12/23 05:53:51;;;;;;;1.60;1.10;;;10.00;98.20;;;;;;5047041;28;20458;-75
2022/12/23 05:56:18;;;;;;;1.60;1.20;;;10.00;98.20;;;;;;5041528;28;20477;-75
2022/12/23 05:58:44;;;;;;;1.80;1.60;;;10.00;98.20;;;;;;5051461;28;20466;-76
2022/12/23 06:01:11;;;;;;;1.60;1.10;;;10.00;98.20;;;;;;5036629;28;20488;-75
2022/12/23 06:03:38;;;;;;;1.60;1.10;;;10.00;98.20;;;;;;5050120;28;20486;-75
2022/12/23 06:06:06;;;;;;;1.60;1.20;;;10.10;98.20;;;;;;5039905;28;20461;-76
2022/12/23 06:08:33;;;;;;;1.60;1.17;;;10.10;98.20;;;;;;5046587;28;20468;-76
2022/12/23 06:11:00;;;;;;;1.60;1.20;;;10.10;98.20;;;;;;5039211;28;20477;-75
2022/12/23 06:13:26;;;;;;;1.60;1.17;;;10.10;98.20;;;;;;5045516;28;20447;-76
2022/12/23 06:15:53;;;;;;;1.60;1.10;;;10.10;98.20;;;;;;5039415;28;20454;-75
2022/12/23 06:18:20;;;;;;;1.60;1.10;;;10.10;98.20;;;;;;5036573;28;20459;-76
2022/12/23 06:20:47;;;;;;;1.60;1.10;;;10.10;98.20;;;;;;5042102;28;20500;-75
2022/12/23 06:23:15;;;;;;;1.60;1.10;;;10.10;98.20;;;;;;5055485;28;20573;-75
2022/12/23 06:25:42;;;;;;;1.60;1.20;;;10.10;98.20;;;;;;5048408;28;20469;-75
2022/12/23 06:28:09;;;;;;;1.60;1.10;;;10.10;98.20;;;;;;5046680;28;20475;-75
2022/12/23 06:30:36;;;;;;;1.60;1.10;;;10.10;98.20;;;;;;5046914;28;20588;-75
2022/12/23 06:33:02;;;;;;;1.60;1.10;;;10.10;98.20;;;;;;5042821;28;20628;-75
2022/12/23 06:35:29;;;;;;;1.60;1.17;;;10.10;98.20;;;;;;5048339;28;20463;-75
2022/12/23 06:37:56;;;;;;;1.70;1.30;;;10.10;98.20;;;;;;5037731;28;20474;-75
2022/12/23 06:40:24;;;;;;;1.60;1.13;;;10.10;98.20;;;;;;5046098;28;20474;-76
2022/12/23 06:42:51;;;;;;;1.63;1.20;;;10.10;98.20;;;;;;5044676;28;20492;-76
2022/12/23 06:45:18;;;;;;;1.60;1.20;;;10.10;98.20;;;;;;5048309;28;20459;-75
2022/12/23 06:47:44;;;;;;;1.60;1.10;;;10.10;98.20;;;;;;5043295;28;20493;-76
2022/12/23 06:50:11;;;;;;;1.60;1.10;;;10.10;98.20;;;;;;5047235;28;20887;-76
2022/12/23 06:52:38;;;;;;;1.60;1.20;;;10.10;98.20;;;;;;5041114;28;20481;-75
2022/12/23 06:55:05;;;;;;;1.67;1.27;;;10.10;98.20;;;;;;5052951;28;20461;-75
2022/12/23 06:57:34;;;;;;;1.60;1.10;;;10.10;98.20;;;;;;5052435;28;20477;-75
2022/12/23 07:00:00;;;;;;;1.60;1.20;;;10.10;98.20;;;;;;5050460;28;20482;-76
2022/12/23 07:02:27;;;;;;;1.67;1.20;;;10.10;98.20;;;;;;5046036;28;21071;-76
2022/12/23 07:04:54;;;;;;;1.60;1.10;;;10.10;98.20;;;;;;5053433;28;20489;-75
2022/12/23 07:07:21;;;;;;;1.60;1.20;;;10.10;98.20;;;;;;5040854;28;20821;-76
2022/12/23 07:09:47;;;;;;;1.60;1.20;;;10.10;98.20;;;;;;5051179;28;20482;-74
2022/12/23 07:12:14;;;;;;;1.63;1.20;;;10.20;98.20;;;;;;5044150;28;20859;-74
2022/12/23 07:14:42;;;;;;;1.60;1.10;;;10.20;98.20;;;;;;5055847;28;20545;-74
2022/12/23 07:17:09;;;;;;;1.60;1.10;;;10.20;98.20;;;;;;5038812;28;20496;-74
2022/12/23 07:19:36;;;;;;;1.60;1.20;;;10.20;98.20;;;;;;5044118;28;20474;-74
2022/12/23 07:22:03;;;;;;;1.60;1.10;;;10.20;98.20;;;;;;5032584;28;20483;-74
2022/12/23 07:24:30;;;;;;;1.60;1.10;;;10.20;98.20;;;;;;5050322;28;20866;-74
2022/12/23 07:26:57;;;;;;;1.60;1.10;;;10.20;98.20;;;;;;5037697;28;20481;-75
2022/12/23 07:29:26;;;;;;;1.60;1.13;;;10.20;98.20;;;;;;5047991;28;20462;-75
2022/12/23 07:31:55;;;;;;;1.60;1.10;;;10.20;98.20;;;;;;5046048;28;20470;-75
2022/12/23 07:34:21;;;;;;;1.60;1.10;;;10.20;98.20;;;;;;5056948;28;20453;-75
2022/12/23 07:36:48;;;;;;;1.60;1.20;;;10.20;98.20;;;;;;5044147;28;20478;-75
2022/12/23 07:39:15;;;;;;;1.60;1.20;;;10.20;98.20;;;;;;5043986;28;20461;-74
2022/12/23 07:41:42;;;;;;;1.60;1.10;;;10.20;98.20;;;;;;5036444;28;20493;-74
2022/12/23 07:44:08;;;;;;;1.60;1.10;;;10.20;98.20;;;;;;5046184;28;20482;-74
2022/12/23 07:46:35;;;;;;;1.60;1.10;;;10.20;98.20;;;;;;5039930;28;20991;-74
2022/12/23 07:49:03;;;;;;;1.60;1.10;;;10.20;98.20;;;;;;5044313;28;20458;-74
2022/12/23 07:51:30;;;;;;;1.63;1.20;;;10.30;98.20;;;;;;5035321;28;20986;-74
2022/12/23 07:53:57;;;;;;;1.60;1.10;;;10.30;98.20;;;;;;5046176;28;20457;-75
2022/12/23 07:56:24;;;;;;;1.60;1.10;;;10.30;98.20;;;;;;5036833;28;20493;-74
2022/12/23 07:58:52;;;;;;;1.60;1.17;;;10.30;98.20;;;;;;5046433;28;20465;-74
2022/12/23 08:01:20;;;;;;;1.60;1.20;;;10.20;98.20;;;;;;5040038;28;20489;-74
2022/12/23 08:03:47;;;;;;;1.63;1.10;;;10.20;98.20;;;;;;5052580;28;20493;-74
2022/12/23 08:06:16;;;;;;;1.60;1.10;;;10.20;98.20;;;;;;5039747;28;20481;-74
2022/12/23 08:08:45;;;;;;;1.60;1.10;;;10.20;98.20;;;;;;5040735;28;20870;-74
2022/12/23 08:11:13;;;;;;;1.60;1.10;;;10.30;98.20;;;;;;5038482;28;20844;-74
2022/12/23 08:13:42;;;;;;;1.60;1.20;;;10.30;98.20;;;;;;5044338;28;20842;-74
2022/12/23 08:16:10;;;;;;;1.63;1.20;;;10.30;98.20;;;;;;5040963;28;20473;-76
2022/12/23 08:18:38;;;;;;;1.67;1.20;;;10.30;98.20;;;;;;5041628;28;20459;-73
2022/12/23 08:21:06;;;;;;;1.60;1.10;;;10.30;98.20;;;;;;5040747;28;20878;-74
2022/12/23 08:23:35;;;;;;;1.60;1.10;;;10.30;98.20;;;;;;5041501;28;20486;-74
2022/12/23 08:26:03;;;;;;;1.60;1.20;;;10.30;98.20;;;;;;5040710;28;20974;-74
2022/12/23 08:28:31;;;;;;;1.63;1.20;;;10.30;98.20;;;;;;5038071;28;20462;-74
2022/12/23 08:31:03;;;;;;;1.60;1.20;;;10.30;98.20;;;;;;5031944;28;20493;-74
2022/12/23 08:33:30;;;;;;;1.60;1.10;;;10.30;98.20;;;;;;5046930;28;20489;-73
2022/12/23 08:35:57;;;;;;;1.70;1.27;;;10.30;98.20;;;;;;5040386;28;20462;-73
2022/12/23 08:38:24;;;;;;;1.60;1.13;;;10.30;98.20;;;;;;5042782;28;20466;-74
2022/12/23 08:40:52;;;;;;;1.60;1.10;;;10.30;98.20;;;;;;5041238;28;20482;-74
2022/12/23 08:43:23;;;;;;;1.60;1.10;;;10.30;98.20;;;;;;5043099;28;20470;-74
2022/12/23 08:45:49;;;;;;;1.60;1.10;;;10.30;98.20;;;;;;5038882;28;20463;-74
2022/12/23 08:48:17;;;;;;;1.60;1.10;;;10.30;98.20;;;;;;5038396;28;20466;-73
2022/12/23 08:50:45;;;;;;;1.60;1.10;;;10.30;98.20;;;;;;5052998;28;20489;-74
2022/12/23 08:53:13;;;;;;;1.60;1.10;;;10.30;98.20;;;;;;5025217;28;20472;-74
2022/12/23 08:55:41;;;;;;;1.60;1.20;;;10.30;98.20;;;;;;5051893;28;20451;-74
2022/12/23 08:58:09;;;;;;;1.60;1.20;;;10.30;98.20;;;;;;5037751;28;20470;-74
2022/12/23 09:00:37;;;;;;;1.60;1.10;;;10.30;98.20;;;;;;5049724;28;20478;-74
2022/12/23 09:03:04;;;;;;;1.60;1.10;;;10.30;98.20;;;;;;5032841;28;20470;-74
2022/12/23 09:05:31;;;;;;;1.60;1.10;;;10.30;98.20;;;;;;5050424;28;20479;-74
2022/12/23 09:07:58;;;;;;;1.60;1.20;;;10.30;98.20;;;;;;5037621;28;20500;-74
2022/12/23 09:10:25;;;;;;;1.60;1.10;;;10.40;98.20;;;;;;5048174;28;20851;-74
2022/12/23 09:12:52;;;;;;;1.60;1.10;;;10.40;98.20;;;;;;5039552;28;20510;-74
2022/12/23 09:15:20;;;;;;;1.70;1.30;;;10.40;98.20;;;;;;5051016;28;21290;-75
2022/12/23 09:17:49;;;;;;;1.63;1.10;;;10.40;98.20;;;;;;5023434;28;20573;-76
2022/12/23 09:20:16;;;;;;;1.60;1.10;;;10.40;98.20;;;;;;5048156;28;21583;-74
2022/12/23 09:22:45;;;;;;;1.60;1.10;;;10.40;98.20;;;;;;5023814;28;20494;-75
2022/12/23 09:25:13;;;;;;;1.60;1.10;;;10.40;98.20;;;;;;5046909;28;21064;-74
2022/12/23 09:27:39;;;;;;;1.60;1.20;;;10.40;98.20;;;;;;5031417;28;20482;-75
2022/12/23 09:30:09;;;;;;;1.60;1.10;;;10.40;98.20;;;;;;5045647;28;20585;-75
2022/12/23 09:32:43;;;;;;;1.60;1.00;;;10.50;98.20;;;;;;5028615;28;20942;-75
2022/12/23 09:35:10;;;;;;;1.60;1.10;;;10.50;98.20;;;;;;5047831;28;20836;-75
2022/12/23 09:37:36;;;;;;;1.60;1.20;;;10.50;98.20;;;;;;5038027;28;21008;-75
2022/12/23 09:40:11;;;;;;;1.60;1.10;;;10.50;98.20;;;;;;5046997;28;20908;-75
2022/12/23 09:42:50;;;;;;;1.60;1.13;;;10.50;98.20;;;;;;5030156;28;20856;-75
2022/12/23 09:45:32;;;;;;;1.60;1.10;;;10.50;98.20;;;;;;5046751;28;20488;-74
2022/12/23 09:48:00;;;;;;;1.60;1.10;;;10.40;98.20;;;;;;5028617;28;20487;-75
2022/12/23 09:50:33;;;;;;;1.67;1.20;;;10.40;98.20;;;;;;5048590;28;20486;-75
2022/12/23 09:53:04;;;;;;;1.63;1.20;;;10.40;98.20;;;;;;5026858;28;20846;-75
2022/12/23 09:55:38;;;;;;;1.63;1.20;;;10.40;98.20;;;;;;5050022;28;20459;-75
2022/12/23 09:58:14;;;;;;;1.60;1.10;;;10.40;98.20;;;;;;5035198;28;20507;-75
2022/12/23 10:00:51;;;;;;;1.60;1.10;;;10.40;98.20;;;;;;5047840;28;20474;-74
2022/12/23 10:03:25;;;;;;;1.60;1.10;;;10.40;98.20;;;;;;5022476;28;21461;-74
2022/12/23 10:06:02;;;;;;;1.60;1.17;;;10.40;98.20;;;;;;5038575;28;20572;-75
2022/12/23 10:08:33;;;;;;;1.67;1.20;;;10.40;98.20;;;;;;5047367;28;20463;-75
2022/12/23 10:11:02;;;;;;;1.60;1.20;;;10.40;98.20;;;;;;5034408;28;20915;-75
2022/12/23 10:13:34;;;;;;;1.60;1.17;;;10.40;98.20;;;;;;5038094;28;20454;-75
2022/12/23 10:16:04;;;;;;;1.60;1.10;;;10.40;98.20;;;;;;5034063;28;20454;-74
2022/12/23 10:18:45;;;;;;;1.60;1.10;;;10.40;98.20;;;;;;5038881;28;20468;-75
2022/12/23 10:21:33;;;;;;;1.60;1.10;;;10.40;98.20;;;;;;5034939;28;20519;-75
2022/12/23 10:24:07;;;;;;;1.60;1.10;;;10.40;98.20;;;;;;5036926;28;20834;-73
2022/12/23 10:26:41;;;;;;;1.60;1.10;;;10.40;98.20;;;;;;5030291;28;20478;-74
2022/12/23 10:29:18;;;;;;;1.70;1.20;;;10.40;98.20;;;;;;5042013;28;20457;-75
2022/12/23 10:31:57;;;;;;;1.60;1.10;;;10.40;98.20;;;;;;5033921;28;20528;-75
2022/12/23 10:34:32;;;;;;;1.60;1.10;;;10.40;98.20;;;;;;5039963;28;21049;-74
2022/12/23 10:37:14;;;;;;;1.60;1.10;;;10.50;98.20;;;;;;5037698;28;20468;-74
2022/12/23 10:39:52;;;;;;;1.60;1.10;;;10.50;98.20;;;;;;5048330;28;20986;-73
2022/12/23 10:42:28;;;;;;;1.60;1.20;;;10.50;98.20;;;;;;5037725;28;20477;-73
2022/12/23 10:45:22;;;;;;;1.60;1.10;;;10.60;98.20;;;;;;5048407;28;20485;-74
2022/12/23 10:48:02;;;;;;;1.60;1.10;;;10.60;98.20;;;;;;5027324;28;21041;-73
2022/12/23 10:50:49;;;;;;;1.60;1.17;;;10.60;98.20;;;;;;5047404;28;21110;-75
2022/12/23 10:53:27;;;;;;;1.60;1.17;;;10.60;98.20;;;;;;5019562;28;20466;-75
2022/12/23 10:55:55;;;;;;;1.60;1.10;;;10.60;98.20;;;;;;5040430;28;20461;-75
2022/12/23 10:58:22;;;;;;;1.60;1.10;;;10.60;98.20;;;;;;5035882;28;20477;-75
2022/12/23 11:00:54;;;;;;;2.77;2.57;;;10.60;98.20;;;;;;5034788;28;20556;-75
2022/12/23 11:03:23;;;;;;;1.60;1.10;;;10.60;98.20;;;;;;5033486;28;20853;-75
2022/12/23 11:05:53;;;;;;;1.60;1.10;;;10.60;98.20;;;;;;5037855;28;20521;-75
2022/12/23 11:08:21;;;;;;;1.60;1.13;;;10.60;98.20;;;;;;5034962;28;20577;-75
2022/12/23 11:10:49;;;;;;;1.60;1.00;;;10.70;98.20;;;;;;5039994;28;20610;-76
2022/12/23 11:13:25;;;;;;;1.63;1.17;;;10.70;98.20;;;;;;5038587;28;20473;-73
2022/12/23 11:15:52;;;;;;;1.60;1.10;;;10.70;98.20;;;;;;5033994;28;20549;-75
2022/12/23 11:18:20;;;;;;;1.63;1.10;;;10.60;98.20;;;;;;5036479;28;20490;-75
2022/12/23 11:21:04;;;;;;;1.60;1.13;;;10.60;98.20;;;;;;5041448;28;20478;-76
2022/12/23 11:23:34;;;;;;;7.60;2.90;;;10.60;98.20;;;;;;5036526;28;21050;-75
2022/12/23 11:26:09;;;;;;;1.60;1.10;;;10.60;98.20;;;;;;5033176;28;20478;-75
2022/12/23 11:28:38;;;;;;;1.63;1.10;;;10.60;98.20;;;;;;5038702;28;20457;-76
2022/12/23 11:31:10;;;;;;;1.60;1.10;;;10.60;98.20;;;;;;5037675;28;20485;-75
2022/12/23 11:33:39;;;;;;;1.60;1.10;;;10.60;98.20;;;;;;5033133;28;20512;-74
2022/12/23 11:36:15;;;;;;;1.60;1.10;;;10.50;98.20;;;;;;5035969;28;20539;-75
2022/12/23 11:38:49;;;;;;;1.60;1.20;;;10.50;98.20;;;;;;5032375;28;20458;-73
2022/12/23 11:41:20;;;;;;;1.70;1.30;;;10.50;98.20;;;;;;5037204;28;20546;-75
2022/12/23 11:43:54;;;;;;;1.67;1.10;;;10.50;98.20;;;;;;5051088;28;20488;-77
2022/12/23 11:46:26;;;;;;;1.60;1.20;;;10.50;98.20;;;;;;5036412;28;20789;-76
2022/12/23 11:49:05;;;;;;;1.60;1.07;;;10.50;98.20;;;;;;5044277;28;20470;-76
2022/12/23 11:51:34;;;;;;;1.60;1.10;;;10.50;98.20;;;;;;5035895;28;20478;-77
2022/12/23 11:54:02;;;;;;;1.67;1.27;;;10.40;98.20;;;;;;5044080;28;20462;-77
2022/12/23 11:56:36;;;;;;;1.60;1.10;;;10.40;98.20;;;;;;5035808;28;20540;-77
2022/12/23 11:59:07;;;;;;;1.67;1.20;;;10.40;98.20;;;;;;5038468;28;20561;-77
2022/12/23 12:01:36;;;;;;;1.60;1.10;;;10.40;98.20;;;;;;5032061;28;20585;-78
2022/12/23 12:04:07;;;;;;;1.60;1.10;;;10.40;98.20;;;;;;5042859;28;20462;-77
2022/12/23 12:06:43;;;;;;;1.60;1.10;;;10.50;98.20;;;;;;5035495;28;20504;-78
2022/12/23 12:09:13;;;;;;;1.60;1.10;;;10.50;98.20;;;;;;5042639;28;20457;-78
2022/12/23 12:11:46;;;;;;;1.60;1.03;;;10.50;98.20;;;;;;5041302;28;20482;-77
2022/12/23 12:14:27;;;;;;;1.63;1.17;;;10.50;98.20;;;;;;5045874;28;20549;-77
2022/12/23 12:16:58;;;;;;;1.60;1.10;;;10.50;98.20;;;;;;5034301;28;20521;-77
2022/12/23 12:19:28;;;;;;;2.83;2.63;;;10.50;98.20;;;;;;5043924;28;20465;-77
2022/12/23 12:22:09;;;;;;;1.60;1.10;;;10.50;98.20;;;;;;5042030;28;21040;-75
2022/12/23 12:24:40;;;;;;;1.60;1.10;;;10.40;98.20;;;;;;5047234;28;20553;-76
2022/12/23 12:27:10;;;;;;;1.60;1.10;;;10.40;98.20;;;;;;5030663;28;20481;-76
2022/12/23 12:29:41;;;;;;;1.70;1.30;;;10.40;98.20;;;;;;5041577;28;21010;-76
2022/12/23 12:32:16;;;;;;;1.80;1.47;;;10.30;98.20;;;;;;5029711;28;20482;-77
2022/12/23 12:34:51;;;;;;;1.70;1.23;;;10.30;98.20;;;;;;5048929;28;20465;-77
2022/12/23 12:37:30;;;;;;;1.70;1.30;;;10.30;98.20;;;;;;5026252;28;20518;-77
2022/12/23 12:40:14;;;;;;;1.60;1.20;;;10.30;98.20;;;;;;5048744;28;20477;-76
2022/12/23 12:42:42;;;;;;;1.60;1.20;;;10.30;98.20;;;;;;5036694;28;20571;-75
2022/12/23 12:45:16;;;;;;;1.67;1.20;;;10.30;98.20;;;;;;5046726;28;20484;-76
2022/12/23 12:47:51;;;;;;;1.60;1.10;;;10.30;98.20;;;;;;5032773;28;20502;-75
2022/12/23 12:50:21;;;;;;;1.60;1.10;;;10.30;98.20;;;;;;5045331;28;20535;-75
2022/12/23 12:52:53;;;;;;;1.60;1.10;;;10.20;98.20;;;;;;5027782;28;20497;-75
2022/12/23 12:55:26;;;;;;;1.60;1.10;;;10.10;98.20;;;;;;5047022;28;20469;-75
2022/12/23 12:57:52;;;;;;;1.60;1.10;;;10.10;98.20;;;;;;5029266;28;20493;-76
2022/12/23 13:00:21;;;;;;;1.60;1.10;;;10.10;98.20;;;;;;5044401;28;21111;-76
2022/12/23 13:03:14;;;;;;;1.60;1.10;;;10.00;98.20;;;;;;5033358;28;20520;-77
2022/12/23 13:06:04;;;;;;;1.63;1.20;;;10.00;98.20;;;;;;5047460;28;20645;-76
2022/12/23 13:08:44;;;;;;;1.60;1.20;;;10.00;98.20;;;;;;5021247;28;20470;-75
2022/12/23 13:11:18;;;;;;;1.60;1.13;;;10.00;98.20;;;;;;5036576;28;21034;-76
2022/12/23 13:13:53;;;;;;;1.63;1.17;;;9.90;98.20;;;;;;5036675;28;20549;-77
2022/12/23 13:16:32;;;;;;;1.60;1.20;;;9.90;98.20;;;;;;5032998;28;20975;-76
2022/12/23 13:19:04;;;;;;;1.60;1.10;;;9.90;98.20;;;;;;5048898;28;20495;-77
2022/12/23 13:21:36;;;;;;;1.60;1.10;;;9.90;98.20;;;;;;5035227;28;20571;-77
2022/12/23 13:24:17;;;;;;;1.60;1.10;;;9.90;98.20;;;;;;5040479;28;21018;-77
2022/12/23 13:26:57;;;;;;;1.60;1.10;;;9.90;98.20;;;;;;5028128;28;20570;-77
2022/12/23 13:30:03;;;;;;;1.63;1.20;;;9.90;98.20;;;;;;5038057;28;20464;-76
2022/12/23 13:32:41;;;;;;;1.60;1.20;;;9.90;98.20;;;;;;5025308;28;20558;-75
2022/12/23 13:35:20;;;;;;;1.60;1.20;;;9.80;98.20;;;;;;5048091;28;20457;-76
2022/12/23 13:38:05;;;;;;;1.60;1.20;;;9.80;98.20;;;;;;5022111;28;20487;-76